EJU7007 LEMG-EGMC
Flight info
| Callsign | EJU7007 |
|---|---|
| Flight time | N/A |
| Altitude | 38000 |
| Route | BLN N865 VTB N867 BLV P87 BELEN DCT DIDIG UP87 MOKOR UN873 OLEBA DCT ROGPU DCT DIKRO UZ273 ANGLO/N0425F370 UZ273 NEVIL |
| Aircraft | A319/M-SDE3FGHIRWY/LB1 |
Departure
| Time | N/A |
|---|---|
| Airport | Málaga-Costa del Sol Airport (LEMG) |
Arrival
| Time | 2026-04-25 10:30 |
|---|---|
| Airport | London Southend Airport (EGMC) |
| Time | Latitude | Longitude | Altitude | Speed | Heading |
|---|---|---|---|---|---|
| 2026-04-25 08:49 | 41.60885 | -3.07635 | 38158 ft | 434 kts | 9° |
| 2026-04-25 08:49 | 41.66831 | -3.06288 | 38161 ft | 435 kts | 9° |
| 2026-04-25 08:50 | 41.72802 | -3.04921 | 38170 ft | 435 kts | 9° |
| 2026-04-25 08:50 | 41.78731 | -3.03557 | 38175 ft | 435 kts | 9° |
| 2026-04-25 08:51 | 41.84703 | -3.02177 | 38179 ft | 435 kts | 9° |
| 2026-04-25 08:51 | 41.90667 | -3.00812 | 38180 ft | 435 kts | 9° |
| 2026-04-25 08:52 | 41.96636 | -2.99433 | 38186 ft | 435 kts | 9° |
| 2026-04-25 08:52 | 42.02598 | -2.98047 | 38189 ft | 435 kts | 9° |
| 2026-04-25 08:53 | 42.08560 | -2.96659 | 38193 ft | 434 kts | 8° |
| 2026-04-25 08:53 | 42.14516 | -2.95276 | 38196 ft | 434 kts | 9° |
| 2026-04-25 08:54 | 42.18961 | -2.94240 | 38200 ft | 434 kts | 8° |
| 2026-04-25 08:54 | 42.24806 | -2.92882 | 38209 ft | 434 kts | 8° |
| 2026-04-25 08:55 | 42.30751 | -2.91492 | 38209 ft | 433 kts | 8° |
| 2026-04-25 08:55 | 42.36655 | -2.90104 | 38214 ft | 433 kts | 9° |
| 2026-04-25 08:56 | 42.42578 | -2.88703 | 38211 ft | 432 kts | 8° |
| 2026-04-25 08:56 | 42.48549 | -2.88231 | 38213 ft | 430 kts | 356° |
| 2026-04-25 08:57 | 42.54524 | -2.88565 | 38208 ft | 429 kts | 356° |
| 2026-04-25 08:57 | 42.60489 | -2.88865 | 38207 ft | 429 kts | 356° |
| 2026-04-25 08:58 | 42.66466 | -2.89157 | 38212 ft | 429 kts | 356° |
| 2026-04-25 08:58 | 42.72441 | -2.89461 | 38215 ft | 430 kts | 356° |
| 2026-04-25 08:59 | 42.78421 | -2.89779 | 38219 ft | 430 kts | 356° |
| 2026-04-25 08:59 | 42.84357 | -2.90104 | 38217 ft | 430 kts | 356° |
| 2026-04-25 09:00 | 42.90339 | -2.90420 | 38216 ft | 430 kts | 356° |
| 2026-04-25 09:00 | 42.96329 | -2.90735 | 38216 ft | 431 kts | 356° |
| 2026-04-25 09:01 | 43.02322 | -2.91047 | 38214 ft | 431 kts | 356° |
| 2026-04-25 09:01 | 43.08325 | -2.91357 | 38216 ft | 431 kts | 356° |
| 2026-04-25 09:02 | 43.14322 | -2.91676 | 38221 ft | 432 kts | 356° |
| 2026-04-25 09:02 | 43.20327 | -2.91997 | 38219 ft | 432 kts | 356° |
| 2026-04-25 09:03 | 43.26333 | -2.92316 | 38223 ft | 432 kts | 356° |
| 2026-04-25 09:03 | 43.32301 | -2.91985 | 38223 ft | 435 kts | 10° |
| 2026-04-25 09:04 | 43.38226 | -2.90250 | 38227 ft | 435 kts | 11° |
| 2026-04-25 09:04 | 43.44152 | -2.88513 | 38227 ft | 435 kts | 11° |
| 2026-04-25 09:05 | 43.50073 | -2.86769 | 38215 ft | 435 kts | 11° |
| 2026-04-25 09:05 | 43.56000 | -2.85027 | 38213 ft | 435 kts | 11° |
| 2026-04-25 09:06 | 43.61519 | -2.83403 | 38218 ft | 435 kts | 10° |
| 2026-04-25 09:06 | 43.67436 | -2.81649 | 38211 ft | 435 kts | 10° |
| 2026-04-25 09:07 | 43.73355 | -2.79823 | 38205 ft | 436 kts | 11° |
| 2026-04-25 09:07 | 43.79218 | -2.77890 | 38205 ft | 436 kts | 12° |
| 2026-04-25 09:08 | 43.85122 | -2.75922 | 38205 ft | 436 kts | 12° |
| 2026-04-25 09:08 | 43.91020 | -2.73977 | 38200 ft | 436 kts | 11° |
| 2026-04-25 09:09 | 43.96972 | -2.72396 | 38199 ft | 435 kts | 7° |
| 2026-04-25 09:09 | 44.02968 | -2.71204 | 38195 ft | 435 kts | 6° |
| 2026-04-25 09:10 | 44.08961 | -2.70008 | 38193 ft | 435 kts | 7° |
| 2026-04-25 09:10 | 44.14951 | -2.68702 | 38192 ft | 436 kts | 7° |
| 2026-04-25 09:11 | 44.23935 | -2.66662 | 38189 ft | 436 kts | 7° |
| 2026-04-25 09:11 | 44.29921 | -2.65330 | 38185 ft | 436 kts | 7° |
| 2026-04-25 09:12 | 44.35874 | -2.64003 | 38185 ft | 436 kts | 7° |
| 2026-04-25 09:12 | 44.41860 | -2.62660 | 38179 ft | 436 kts | 7° |
| 2026-04-25 09:13 | 44.47858 | -2.61312 | 38178 ft | 436 kts | 7° |
| 2026-04-25 09:13 | 44.53859 | -2.59964 | 38175 ft | 436 kts | 7° |
| 2026-04-25 09:14 | 44.59846 | -2.58620 | 38171 ft | 436 kts | 7° |
| 2026-04-25 09:14 | 44.65843 | -2.57274 | 38166 ft | 436 kts | 7° |
| 2026-04-25 09:15 | 44.71836 | -2.55915 | 38160 ft | 436 kts | 7° |
| 2026-04-25 09:15 | 44.77830 | -2.54546 | 38162 ft | 436 kts | 7° |
| 2026-04-25 09:16 | 44.83830 | -2.53183 | 38156 ft | 437 kts | 7° |
| 2026-04-25 09:16 | 44.89784 | -2.51829 | 38156 ft | 437 kts | 7° |
| 2026-04-25 09:17 | 44.98788 | -2.49789 | 38159 ft | 437 kts | 7° |
| 2026-04-25 09:18 | 45.04413 | -2.48500 | 38146 ft | 437 kts | 7° |
| 2026-04-25 09:18 | 45.10415 | -2.47116 | 38150 ft | 437 kts | 7° |
| 2026-04-25 09:19 | 45.16412 | -2.45738 | 38145 ft | 437 kts | 7° |
| 2026-04-25 09:19 | 45.22426 | -2.44359 | 38139 ft | 437 kts | 7° |
| 2026-04-25 09:20 | 45.28428 | -2.42983 | 38144 ft | 437 kts | 7° |
| 2026-04-25 09:20 | 45.34400 | -2.41605 | 38136 ft | 438 kts | 7° |
| 2026-04-25 09:21 | 45.40416 | -2.40207 | 38142 ft | 438 kts | 7° |
| 2026-04-25 09:21 | 45.46430 | -2.38812 | 38143 ft | 438 kts | 7° |
| 2026-04-25 09:22 | 45.52448 | -2.37424 | 38139 ft | 438 kts | 7° |
| 2026-04-25 09:22 | 45.58468 | -2.36026 | 38139 ft | 438 kts | 7° |
| 2026-04-25 09:23 | 45.64490 | -2.34613 | 38139 ft | 439 kts | 7° |
| 2026-04-25 09:23 | 45.70516 | -2.33187 | 38136 ft | 439 kts | 7° |
| 2026-04-25 09:24 | 45.76169 | -2.31860 | 38142 ft | 439 kts | 7° |
| 2026-04-25 09:24 | 45.82160 | -2.30459 | 38146 ft | 439 kts | 7° |
| 2026-04-25 09:25 | 45.88189 | -2.29034 | 38145 ft | 439 kts | 7° |
| 2026-04-25 09:25 | 45.94216 | -2.27608 | 38138 ft | 439 kts | 7° |
| 2026-04-25 09:26 | 46.00252 | -2.26184 | 38139 ft | 439 kts | 7° |
| 2026-04-25 09:26 | 46.06277 | -2.24750 | 38142 ft | 439 kts | 7° |
| 2026-04-25 09:27 | 46.12310 | -2.23290 | 38139 ft | 439 kts | 8° |
| 2026-04-25 09:27 | 46.18304 | -2.21811 | 38142 ft | 440 kts | 8° |
| 2026-04-25 09:28 | 46.24336 | -2.20320 | 38141 ft | 440 kts | 8° |
| 2026-04-25 09:28 | 46.30367 | -2.18840 | 38140 ft | 440 kts | 8° |
| 2026-04-25 09:29 | 46.36406 | -2.17372 | 38139 ft | 440 kts | 8° |
| 2026-04-25 09:29 | 46.42056 | -2.15988 | 38137 ft | 440 kts | 8° |
| 2026-04-25 09:30 | 46.47067 | -2.14756 | 38134 ft | 440 kts | 8° |
| 2026-04-25 09:30 | 46.53096 | -2.13264 | 38135 ft | 440 kts | 8° |
| 2026-04-25 09:31 | 46.60112 | -2.11521 | 38138 ft | 440 kts | 8° |
| 2026-04-25 09:31 | 46.66147 | -2.10033 | 38142 ft | 440 kts | 8° |
| 2026-04-25 09:32 | 46.71201 | -2.08777 | 38142 ft | 440 kts | 8° |
| 2026-04-25 09:32 | 46.77233 | -2.07266 | 38140 ft | 440 kts | 8° |
| 2026-04-25 09:33 | 46.83263 | -2.05760 | 38142 ft | 440 kts | 8° |
| 2026-04-25 09:33 | 46.89294 | -2.04251 | 38141 ft | 440 kts | 8° |
| 2026-04-25 09:34 | 46.95328 | -2.02729 | 38144 ft | 440 kts | 8° |
| 2026-04-25 09:34 | 47.01185 | -2.00175 | 38140 ft | 443 kts | 25° |
| 2026-04-25 09:35 | 47.06285 | -1.95222 | 38143 ft | 444 kts | 36° |
| 2026-04-25 09:35 | 47.11214 | -1.89767 | 38138 ft | 444 kts | 36° |
| 2026-04-25 09:36 | 47.16492 | -1.85124 | 38136 ft | 442 kts | 20° |
| 2026-04-25 09:36 | 47.22412 | -1.82899 | 38134 ft | 440 kts | 9° |
| 2026-04-25 09:37 | 47.28420 | -1.81185 | 38138 ft | 440 kts | 9° |
| 2026-04-25 09:37 | 47.34431 | -1.79444 | 38141 ft | 440 kts | 9° |
| 2026-04-25 09:38 | 47.40440 | -1.77701 | 38142 ft | 440 kts | 9° |
| 2026-04-25 09:38 | 47.46451 | -1.75966 | 38155 ft | 440 kts | 9° |
| 2026-04-25 09:39 | 47.52463 | -1.74230 | 38153 ft | 440 kts | 9° |
| 2026-04-25 09:39 | 47.58479 | -1.72484 | 38159 ft | 440 kts | 9° |
| 2026-04-25 09:40 | 47.67498 | -1.69874 | 38162 ft | 440 kts | 9° |
| 2026-04-25 09:40 | 47.73481 | -1.68135 | 38164 ft | 440 kts | 9° |
| 2026-04-25 09:41 | 47.79490 | -1.66368 | 38169 ft | 440 kts | 9° |
| 2026-04-25 09:41 | 47.85158 | -1.64700 | 38173 ft | 440 kts | 9° |
| 2026-04-25 09:42 | 47.91127 | -1.62939 | 38172 ft | 440 kts | 9° |
| 2026-04-25 09:42 | 47.97142 | -1.61168 | 38174 ft | 440 kts | 9° |
| 2026-04-25 09:43 | 48.03161 | -1.59391 | 38176 ft | 441 kts | 9° |
| 2026-04-25 09:43 | 48.09177 | -1.57614 | 38179 ft | 441 kts | 9° |
| 2026-04-25 09:44 | 48.15195 | -1.55840 | 38176 ft | 441 kts | 9° |
| 2026-04-25 09:44 | 48.21205 | -1.54051 | 38175 ft | 440 kts | 9° |
| 2026-04-25 09:45 | 48.27225 | -1.52246 | 38176 ft | 441 kts | 9° |
| 2026-04-25 09:45 | 48.33250 | -1.50446 | 38172 ft | 441 kts | 9° |
| 2026-04-25 09:46 | 48.39227 | -1.48654 | 38176 ft | 441 kts | 9° |
| 2026-04-25 09:46 | 48.45249 | -1.46850 | 38180 ft | 441 kts | 9° |
| 2026-04-25 09:47 | 48.51265 | -1.45046 | 38178 ft | 441 kts | 9° |
| 2026-04-25 09:47 | 48.57273 | -1.43232 | 38179 ft | 440 kts | 9° |
| 2026-04-25 09:48 | 48.63284 | -1.41416 | 38182 ft | 441 kts | 9° |
| 2026-04-25 09:48 | 48.69293 | -1.39587 | 38184 ft | 440 kts | 9° |
| 2026-04-25 09:49 | 48.75301 | -1.37710 | 38180 ft | 440 kts | 10° |
| 2026-04-25 09:49 | 48.81252 | -1.35822 | 38184 ft | 440 kts | 10° |
| 2026-04-25 09:50 | 48.87244 | -1.33919 | 38190 ft | 440 kts | 10° |
| 2026-04-25 09:50 | 48.93240 | -1.32024 | 38193 ft | 440 kts | 10° |
| 2026-04-25 09:51 | 48.99226 | -1.30135 | 38187 ft | 439 kts | 10° |
| 2026-04-25 09:51 | 49.05212 | -1.28234 | 38187 ft | 439 kts | 10° |
| 2026-04-25 09:52 | 49.11192 | -1.26327 | 38190 ft | 439 kts | 10° |
| 2026-04-25 09:52 | 49.17172 | -1.24418 | 38191 ft | 439 kts | 10° |
| 2026-04-25 09:53 | 49.22775 | -1.22627 | 38188 ft | 439 kts | 10° |
| 2026-04-25 09:53 | 49.28743 | -1.20705 | 38186 ft | 438 kts | 10° |
| 2026-04-25 09:54 | 49.34803 | -1.18750 | 37963 ft | 452 kts | 10° |
| 2026-04-25 09:54 | 49.37847 | -1.17763 | 37483 ft | 454 kts | 10° |
| 2026-04-25 09:54 | 49.40935 | -1.16761 | 37004 ft | 453 kts | 10° |
| 2026-04-25 09:55 | 49.44007 | -1.15768 | 36531 ft | 451 kts | 10° |
| 2026-04-25 09:55 | 49.47070 | -1.14777 | 36072 ft | 448 kts | 10° |
| 2026-04-25 09:55 | 49.50110 | -1.13791 | 35620 ft | 446 kts | 10° |
| 2026-04-25 09:55 | 49.53137 | -1.12809 | 35173 ft | 443 kts | 10° |
| 2026-04-25 09:56 | 49.56109 | -1.11587 | 34726 ft | 442 kts | 20° |
| 2026-04-25 09:56 | 49.58812 | -1.09353 | 34297 ft | 442 kts | 35° |
| 2026-04-25 09:56 | 49.61073 | -1.06169 | 33809 ft | 440 kts | 50° |
| 2026-04-25 09:56 | 49.63014 | -1.02521 | 33333 ft | 438 kts | 51° |
| 2026-04-25 09:57 | 49.64935 | -0.98881 | 32853 ft | 436 kts | 51° |
| 2026-04-25 09:57 | 49.66844 | -0.95261 | 32382 ft | 433 kts | 51° |
| 2026-04-25 09:57 | 49.68742 | -0.91663 | 31915 ft | 431 kts | 51° |
| 2026-04-25 09:57 | 49.70604 | -0.88128 | 31462 ft | 428 kts | 51° |
| 2026-04-25 09:58 | 49.72472 | -0.84573 | 31018 ft | 425 kts | 51° |
| 2026-04-25 09:58 | 49.74328 | -0.81031 | 30571 ft | 423 kts | 51° |
| 2026-04-25 09:58 | 49.76184 | -0.77489 | 30057 ft | 421 kts | 51° |
| 2026-04-25 09:58 | 49.78024 | -0.73977 | 29489 ft | 420 kts | 51° |
| 2026-04-25 09:59 | 49.79857 | -0.70472 | 28938 ft | 418 kts | 51° |
| 2026-04-25 09:59 | 49.81682 | -0.66980 | 28395 ft | 416 kts | 51° |
| 2026-04-25 09:59 | 49.83497 | -0.63504 | 27863 ft | 414 kts | 51° |
| 2026-04-25 09:59 | 49.85299 | -0.60045 | 27343 ft | 412 kts | 51° |
| 2026-04-25 10:00 | 49.87094 | -0.56591 | 26824 ft | 410 kts | 51° |
| 2026-04-25 10:00 | 49.88877 | -0.53149 | 26327 ft | 408 kts | 51° |
| 2026-04-25 10:00 | 49.90625 | -0.49770 | 25838 ft | 406 kts | 51° |
| 2026-04-25 10:00 | 49.92411 | -0.46395 | 25351 ft | 404 kts | 47° |
| 2026-04-25 10:01 | 49.94519 | -0.43459 | 24870 ft | 401 kts | 37° |
| 2026-04-25 10:01 | 49.96686 | -0.40855 | 24405 ft | 397 kts | 37° |
| 2026-04-25 10:01 | 49.98843 | -0.38249 | 23942 ft | 389 kts | 37° |
| 2026-04-25 10:01 | 50.00961 | -0.35681 | 23423 ft | 382 kts | 37° |
| 2026-04-25 10:02 | 50.03032 | -0.33161 | 22880 ft | 374 kts | 37° |
| 2026-04-25 10:02 | 50.05052 | -0.30699 | 22401 ft | 364 kts | 37° |
| 2026-04-25 10:02 | 50.07039 | -0.28279 | 22066 ft | 360 kts | 37° |
| 2026-04-25 10:02 | 50.09003 | -0.25884 | 21734 ft | 358 kts | 37° |
| 2026-04-25 10:03 | 50.10956 | -0.23496 | 21399 ft | 356 kts | 37° |
| 2026-04-25 10:03 | 50.12901 | -0.21118 | 21072 ft | 355 kts | 37° |
| 2026-04-25 10:03 | 50.14749 | -0.18571 | 20792 ft | 354 kts | 47° |
| 2026-04-25 10:03 | 50.16221 | -0.15512 | 20520 ft | 353 kts | 58° |
| 2026-04-25 10:04 | 50.17508 | -0.12252 | 20255 ft | 353 kts | 58° |
| 2026-04-25 10:04 | 50.18796 | -0.09004 | 19986 ft | 351 kts | 58° |
| 2026-04-25 10:04 | 50.20085 | -0.05763 | 19719 ft | 350 kts | 58° |
| 2026-04-25 10:04 | 50.21365 | -0.02544 | 19444 ft | 349 kts | 58° |
| 2026-04-25 10:05 | 50.22226 | -0.00370 | 19275 ft | 348 kts | 58° |
| 2026-04-25 10:05 | 50.23659 | 0.03258 | 18989 ft | 347 kts | 58° |
| 2026-04-25 10:05 | 50.24922 | 0.06466 | 18729 ft | 346 kts | 58° |
| 2026-04-25 10:05 | 50.26182 | 0.09658 | 18471 ft | 345 kts | 58° |
| 2026-04-25 10:06 | 50.27433 | 0.12828 | 18172 ft | 343 kts | 58° |
| 2026-04-25 10:06 | 50.28682 | 0.15999 | 17887 ft | 341 kts | 58° |
| 2026-04-25 10:06 | 50.29920 | 0.19142 | 17596 ft | 339 kts | 58° |
| 2026-04-25 10:06 | 50.31151 | 0.22271 | 17305 ft | 336 kts | 58° |
| 2026-04-25 10:07 | 50.32375 | 0.25385 | 17021 ft | 335 kts | 58° |
| 2026-04-25 10:07 | 50.33589 | 0.28482 | 16739 ft | 333 kts | 58° |
| 2026-04-25 10:07 | 50.34792 | 0.31555 | 16459 ft | 331 kts | 58° |
| 2026-04-25 10:07 | 50.35988 | 0.34623 | 16179 ft | 329 kts | 58° |
| 2026-04-25 10:08 | 50.37161 | 0.37629 | 15909 ft | 327 kts | 58° |
| 2026-04-25 10:08 | 50.38346 | 0.40671 | 15636 ft | 326 kts | 58° |
| 2026-04-25 10:08 | 50.39521 | 0.43695 | 15439 ft | 324 kts | 58° |
| 2026-04-25 10:08 | 50.40689 | 0.46711 | 15256 ft | 323 kts | 58° |
| 2026-04-25 10:09 | 50.41859 | 0.49711 | 15084 ft | 322 kts | 57° |
| 2026-04-25 10:09 | 50.43060 | 0.52671 | 14915 ft | 321 kts | 56° |
| 2026-04-25 10:09 | 50.44281 | 0.55612 | 14744 ft | 320 kts | 56° |
| 2026-04-25 10:09 | 50.45499 | 0.58522 | 14581 ft | 319 kts | 56° |
| 2026-04-25 10:10 | 50.46717 | 0.61434 | 14421 ft | 318 kts | 56° |
| 2026-04-25 10:10 | 50.47924 | 0.64334 | 14236 ft | 317 kts | 56° |
| 2026-04-25 10:10 | 50.49124 | 0.67237 | 14082 ft | 316 kts | 56° |
| 2026-04-25 10:10 | 50.50316 | 0.70137 | 13903 ft | 315 kts | 56° |
| 2026-04-25 10:11 | 50.51516 | 0.73007 | 13713 ft | 314 kts | 52° |
| 2026-04-25 10:11 | 50.53119 | 0.75265 | 13532 ft | 309 kts | 27° |
| 2026-04-25 10:11 | 50.55139 | 0.76251 | 13306 ft | 305 kts | 2° |
| 2026-04-25 10:11 | 50.57240 | 0.76103 | 12987 ft | 301 kts | 352° |
| 2026-04-25 10:12 | 50.59321 | 0.75743 | 12676 ft | 300 kts | 352° |
| 2026-04-25 10:12 | 50.61387 | 0.75362 | 12368 ft | 298 kts | 351° |
| 2026-04-25 10:12 | 50.65333 | 0.73710 | 11766 ft | 294 kts | 341° |
| 2026-04-25 10:13 | 50.67282 | 0.72775 | 11473 ft | 292 kts | 341° |
| 2026-04-25 10:13 | 50.69219 | 0.71836 | 11237 ft | 291 kts | 341° |
| 2026-04-25 10:13 | 50.71152 | 0.70896 | 10984 ft | 290 kts | 341° |
| 2026-04-25 10:13 | 50.73074 | 0.69957 | 10739 ft | 289 kts | 341° |
| 2026-04-25 10:14 | 50.74988 | 0.69016 | 10497 ft | 288 kts | 341° |
| 2026-04-25 10:14 | 50.76893 | 0.68073 | 10257 ft | 286 kts | 341° |
| 2026-04-25 10:14 | 50.78791 | 0.67130 | 10013 ft | 285 kts | 341° |
| 2026-04-25 10:14 | 50.80680 | 0.66188 | 9736 ft | 284 kts | 341° |
| 2026-04-25 10:15 | 50.82560 | 0.65248 | 9485 ft | 283 kts | 341° |
| 2026-04-25 10:15 | 50.84440 | 0.64300 | 9224 ft | 283 kts | 341° |
| 2026-04-25 10:15 | 50.86313 | 0.63351 | 8966 ft | 282 kts | 341° |
| 2026-04-25 10:15 | 50.88179 | 0.62404 | 8709 ft | 281 kts | 341° |
| 2026-04-25 10:16 | 50.90037 | 0.61455 | 8453 ft | 280 kts | 341° |
| 2026-04-25 10:16 | 50.91890 | 0.60502 | 8202 ft | 280 kts | 341° |
| 2026-04-25 10:16 | 50.93725 | 0.59555 | 7947 ft | 273 kts | 341° |
| 2026-04-25 10:16 | 50.95503 | 0.58637 | 7718 ft | 265 kts | 341° |
| 2026-04-25 10:17 | 50.97220 | 0.57746 | 7568 ft | 254 kts | 341° |
| 2026-04-25 10:17 | 50.98865 | 0.56889 | 7432 ft | 244 kts | 341° |
| 2026-04-25 10:17 | 51.00461 | 0.56055 | 7292 ft | 240 kts | 341° |
| 2026-04-25 10:17 | 51.02041 | 0.55226 | 7144 ft | 239 kts | 341° |
| 2026-04-25 10:18 | 51.03617 | 0.54397 | 7001 ft | 238 kts | 341° |
| 2026-04-25 10:18 | 51.05189 | 0.53565 | 6859 ft | 238 kts | 341° |
| 2026-04-25 10:18 | 51.06738 | 0.52744 | 6715 ft | 237 kts | 341° |
| 2026-04-25 10:18 | 51.08301 | 0.51914 | 6561 ft | 237 kts | 341° |
| 2026-04-25 10:19 | 51.09866 | 0.51080 | 6389 ft | 237 kts | 341° |
| 2026-04-25 10:19 | 51.11424 | 0.50249 | 6210 ft | 236 kts | 343° |
| 2026-04-25 10:19 | 51.13000 | 0.49574 | 6036 ft | 235 kts | 346° |
| 2026-04-25 10:19 | 51.14590 | 0.48944 | 5847 ft | 234 kts | 346° |
| 2026-04-25 10:20 | 51.16170 | 0.48320 | 5676 ft | 234 kts | 346° |
| 2026-04-25 10:20 | 51.17748 | 0.47696 | 5507 ft | 233 kts | 346° |
| 2026-04-25 10:20 | 51.19323 | 0.47099 | 5360 ft | 232 kts | 348° |
| 2026-04-25 10:20 | 51.20924 | 0.46768 | 5206 ft | 232 kts | 355° |
| 2026-04-25 10:21 | 51.22532 | 0.46571 | 5056 ft | 231 kts | 356° |
| 2026-04-25 10:21 | 51.24134 | 0.46384 | 4906 ft | 230 kts | 356° |
| 2026-04-25 10:21 | 51.25730 | 0.46198 | 4749 ft | 230 kts | 356° |
| 2026-04-25 10:21 | 51.27322 | 0.46008 | 4594 ft | 230 kts | 356° |
| 2026-04-25 10:22 | 51.28912 | 0.45814 | 4447 ft | 227 kts | 356° |
| 2026-04-25 10:22 | 51.29935 | 0.45686 | 4359 ft | 219 kts | 356° |
| 2026-04-25 10:22 | 51.31881 | 0.45438 | 4176 ft | 205 kts | 356° |
| 2026-04-25 10:22 | 51.32828 | 0.45315 | 4056 ft | 200 kts | 356° |
| 2026-04-25 10:23 | 51.34630 | 0.45073 | 3819 ft | 193 kts | 356° |
| 2026-04-25 10:23 | 51.35958 | 0.44886 | 3642 ft | 190 kts | 356° |
| 2026-04-25 10:23 | 51.37271 | 0.44697 | 3466 ft | 189 kts | 356° |
| 2026-04-25 10:23 | 51.38582 | 0.44734 | 3281 ft | 188 kts | 8° |
| 2026-04-25 10:24 | 51.39871 | 0.45041 | 3111 ft | 186 kts | 11° |
| 2026-04-25 10:24 | 51.40735 | 0.45273 | 3002 ft | 187 kts | 11° |
| 2026-04-25 10:24 | 51.41993 | 0.45622 | 2822 ft | 186 kts | 12° |
| 2026-04-25 10:24 | 51.43253 | 0.46070 | 2634 ft | 185 kts | 16° |
| 2026-04-25 10:25 | 51.44493 | 0.46586 | 2457 ft | 184 kts | 16° |
| 2026-04-25 10:25 | 51.45732 | 0.47105 | 2276 ft | 183 kts | 17° |
| 2026-04-25 10:25 | 51.46926 | 0.47770 | 2110 ft | 181 kts | 31° |
| 2026-04-25 10:25 | 51.47853 | 0.49016 | 2021 ft | 169 kts | 52° |
| 2026-04-25 10:26 | 51.48526 | 0.50490 | 2008 ft | 161 kts | 55° |
| 2026-04-25 10:26 | 51.49181 | 0.51929 | 2009 ft | 158 kts | 55° |
| 2026-04-25 10:26 | 51.49842 | 0.53387 | 2009 ft | 168 kts | 55° |
| 2026-04-25 10:26 | 51.50481 | 0.54795 | 2004 ft | 146 kts | 55° |
| 2026-04-25 10:27 | 51.51039 | 0.56027 | 2006 ft | 130 kts | 56° |
| 2026-04-25 10:27 | 51.51562 | 0.57183 | 1941 ft | 126 kts | 56° |
| 2026-04-25 10:27 | 51.52071 | 0.58308 | 1800 ft | 123 kts | 56° |
| 2026-04-25 10:27 | 51.52570 | 0.59413 | 1633 ft | 122 kts | 55° |
| 2026-04-25 10:28 | 51.53067 | 0.60512 | 1450 ft | 121 kts | 55° |
| 2026-04-25 10:28 | 51.53561 | 0.61605 | 1261 ft | 121 kts | 54° |
| 2026-04-25 10:28 | 51.54047 | 0.62686 | 1091 ft | 121 kts | 55° |
| 2026-04-25 10:28 | 51.54538 | 0.63782 | 937 ft | 121 kts | 54° |
| 2026-04-25 10:29 | 51.55047 | 0.64884 | 762 ft | 121 kts | 53° |
| 2026-04-25 10:29 | 51.55544 | 0.65982 | 564 ft | 122 kts | 55° |
| 2026-04-25 10:29 | 51.56038 | 0.67096 | 325 ft | 122 kts | 54° |
| 2026-04-25 10:29 | 51.56538 | 0.68207 | 100 ft | 122 kts | 54° |
| 2026-04-25 10:30 | 51.56989 | 0.69213 | 49 ft | 85 kts | 54° |
| 2026-04-25 10:30 | 51.57195 | 0.69663 | 49 ft | 35 kts | 53° |
| 2026-04-25 10:30 | 51.57251 | 0.69811 | 49 ft | 12 kts | 93° |
| 2026-04-25 10:30 | 51.57191 | 0.69903 | 49 ft | 13 kts | 144° |
| 2026-04-25 10:31 | 51.57113 | 0.69990 | 49 ft | 14 kts | 141° |
| 2026-04-25 10:31 | 51.57031 | 0.70092 | 49 ft | 16 kts | 144° |
| 2026-04-25 10:31 | 51.56997 | 0.70132 | 49 ft | 0 kts | 144° |
| 2026-04-25 10:31 | 51.56996 | 0.70133 | 49 ft | 1 kts | 144° |
| 2026-04-25 10:32 | 51.56987 | 0.70144 | 49 ft | 2 kts | 144° |
| 2026-04-25 10:32 | 51.56970 | 0.70164 | 49 ft | 3 kts | 138° |
| 2026-04-25 10:32 | 51.56977 | 0.70191 | 49 ft | 3 kts | 45° |
| 2026-04-25 10:32 | 51.57001 | 0.70205 | 49 ft | 4 kts | 2° |
| 2026-04-25 10:33 | 51.57038 | 0.70207 | 49 ft | 6 kts | 2° |
| 2026-04-25 10:33 | 51.57087 | 0.70214 | 49 ft | 7 kts | 4° |
| 2026-04-25 10:33 | 51.57098 | 0.70215 | 49 ft | 0 kts | 4° |
| 2026-04-25 10:33 | 51.57115 | 0.70217 | 49 ft | 4 kts | 5° |
| 2026-04-25 10:34 | 51.57122 | 0.70245 | 49 ft | 3 kts | 77° |
| 2026-04-25 10:34 | 51.57122 | 0.70274 | 49 ft | 2 kts | 92° |
| 2026-04-25 10:34 | 51.57121 | 0.70294 | 49 ft | 0 kts | 93° |
| 2026-04-25 10:58 | 51.57122 | 0.70260 | 47 ft | 4 kts | 93° |
| 2026-04-25 10:58 | 51.57124 | 0.70218 | 44 ft | 4 kts | 93° |
| 2026-04-25 10:58 | 51.57125 | 0.70180 | 44 ft | 1 kts | 93° |
| 2026-04-25 10:58 | 51.57124 | 0.70227 | 46 ft | 10 kts | 93° |
| 2026-04-25 10:59 | 51.57113 | 0.70225 | 48 ft | 9 kts | 230° |
| 2026-04-25 10:59 | 51.57023 | 0.70207 | 49 ft | 10 kts | 184° |
| 2026-04-25 10:59 | 51.56954 | 0.70194 | 49 ft | 8 kts | 190° |
| 2026-04-25 10:59 | 51.56909 | 0.70172 | 49 ft | 10 kts | 214° |
| 2026-04-25 11:00 | 51.56875 | 0.70085 | 49 ft | 11 kts | 247° |
| 2026-04-25 11:00 | 51.56878 | 0.70040 | 49 ft | 8 kts | 277° |
| 2026-04-25 11:00 | 51.56862 | 0.70041 | 47 ft | 7 kts | 62° |
| 2026-04-25 11:00 | 51.56839 | 0.70043 | 49 ft | 5 kts | 188° |
| 2026-04-25 11:01 | 51.56821 | 0.70039 | 49 ft | 0 kts | 189° |